sensor_id;sensor_type;location;lat;lon;timestamp;P1;durP1;ratioP1;P2;durP2;ratioP2
7231;SDS011;3657;49.630;11.018;2023-04-24T00:02:18;5.13;;;5.03;;
7231;SDS011;3657;49.630;11.018;2023-04-24T00:04:45;4.43;;;4.27;;
7231;SDS011;3657;49.630;11.018;2023-04-24T00:07:12;4.97;;;4.80;;
7231;SDS011;3657;49.630;11.018;2023-04-24T00:09:39;4.90;;;4.77;;
7231;SDS011;3657;49.630;11.018;2023-04-24T00:12:05;4.50;;;4.40;;
7231;SDS011;3657;49.630;11.018;2023-04-24T00:14:32;5.20;;;4.90;;
7231;SDS011;3657;49.630;11.018;2023-04-24T00:17:02;4.27;;;4.17;;
7231;SDS011;3657;49.630;11.018;2023-04-24T00:19:30;4.80;;;4.70;;
7231;SDS011;3657;49.630;11.018;2023-04-24T00:21:57;4.37;;;4.27;;
7231;SDS011;3657;49.630;11.018;2023-04-24T00:24:23;5.60;;;5.40;;
7231;SDS011;3657;49.630;11.018;2023-04-24T00:26:50;5.40;;;5.10;;
7231;SDS011;3657;49.630;11.018;2023-04-24T00:29:17;5.10;;;4.70;;
7231;SDS011;3657;49.630;11.018;2023-04-24T00:31:43;5.63;;;5.23;;
7231;SDS011;3657;49.630;11.018;2023-04-24T00:34:10;4.43;;;4.33;;
7231;SDS011;3657;49.630;11.018;2023-04-24T00:36:38;5.37;;;5.17;;
7231;SDS011;3657;49.630;11.018;2023-04-24T00:39:05;5.30;;;5.07;;
7231;SDS011;3657;49.630;11.018;2023-04-24T00:41:33;5.03;;;4.53;;
7231;SDS011;3657;49.630;11.018;2023-04-24T00:44:00;4.37;;;4.27;;
7231;SDS011;3657;49.630;11.018;2023-04-24T00:46:27;4.47;;;4.37;;
7231;SDS011;3657;49.630;11.018;2023-04-24T00:48:54;5.17;;;4.90;;
7231;SDS011;3657;49.630;11.018;2023-04-24T00:51:22;4.40;;;4.30;;
7231;SDS011;3657;49.630;11.018;2023-04-24T00:53:50;4.20;;;4.10;;
7231;SDS011;3657;49.630;11.018;2023-04-24T00:56:17;4.83;;;4.67;;
7231;SDS011;3657;49.630;11.018;2023-04-24T00:58:44;4.53;;;4.30;;
7231;SDS011;3657;49.630;11.018;2023-04-24T01:01:11;4.23;;;3.93;;
7231;SDS011;3657;49.630;11.018;2023-04-24T01:03:39;3.30;;;3.20;;
7231;SDS011;3657;49.630;11.018;2023-04-24T01:06:06;4.50;;;4.40;;
7231;SDS011;3657;49.630;11.018;2023-04-24T01:08:33;4.70;;;4.50;;
7231;SDS011;3657;49.630;11.018;2023-04-24T01:11:03;4.90;;;4.70;;
7231;SDS011;3657;49.630;11.018;2023-04-24T01:13:31;18.97;;;4.70;;
7231;SDS011;3657;49.630;11.018;2023-04-24T01:15:58;4.20;;;4.10;;
7231;SDS011;3657;49.630;11.018;2023-04-24T01:18:27;4.00;;;3.90;;
7231;SDS011;3657;49.630;11.018;2023-04-24T01:20:56;4.47;;;4.37;;
7231;SDS011;3657;49.630;11.018;2023-04-24T01:23:25;4.53;;;4.33;;
7231;SDS011;3657;49.630;11.018;2023-04-24T01:25:52;4.60;;;4.33;;
7231;SDS011;3657;49.630;11.018;2023-04-24T01:28:19;4.10;;;4.00;;
7231;SDS011;3657;49.630;11.018;2023-04-24T01:30:46;4.40;;;4.30;;
7231;SDS011;3657;49.630;11.018;2023-04-24T01:33:13;4.10;;;4.00;;
7231;SDS011;3657;49.630;11.018;2023-04-24T01:35:40;3.63;;;3.53;;
7231;SDS011;3657;49.630;11.018;2023-04-24T01:38:07;4.43;;;4.20;;
7231;SDS011;3657;49.630;11.018;2023-04-24T01:40:35;4.37;;;4.20;;
7231;SDS011;3657;49.630;11.018;2023-04-24T01:43:02;4.27;;;4.17;;
7231;SDS011;3657;49.630;11.018;2023-04-24T01:45:29;4.00;;;3.90;;
7231;SDS011;3657;49.630;11.018;2023-04-24T01:47:55;3.80;;;3.70;;
7231;SDS011;3657;49.630;11.018;2023-04-24T01:50:22;4.10;;;4.00;;
7231;SDS011;3657;49.630;11.018;2023-04-24T01:52:49;4.57;;;4.47;;
7231;SDS011;3657;49.630;11.018;2023-04-24T01:55:16;5.20;;;4.40;;
7231;SDS011;3657;49.630;11.018;2023-04-24T01:57:44;3.70;;;3.60;;
7231;SDS011;3657;49.630;11.018;2023-04-24T02:00:11;4.60;;;4.50;;
7231;SDS011;3657;49.630;11.018;2023-04-24T02:02:38;4.40;;;4.30;;
7231;SDS011;3657;49.630;11.018;2023-04-24T02:05:05;4.60;;;4.30;;
7231;SDS011;3657;49.630;11.018;2023-04-24T02:07:33;3.80;;;3.70;;
7231;SDS011;3657;49.630;11.018;2023-04-24T02:09:59;4.60;;;4.50;;
7231;SDS011;3657;49.630;11.018;2023-04-24T02:12:26;4.40;;;4.20;;
7231;SDS011;3657;49.630;11.018;2023-04-24T02:14:54;5.97;;;3.67;;
7231;SDS011;3657;49.630;11.018;2023-04-24T02:17:21;4.07;;;3.87;;
7231;SDS011;3657;49.630;11.018;2023-04-24T02:19:48;4.43;;;4.33;;
7231;SDS011;3657;49.630;11.018;2023-04-24T02:22:14;4.07;;;3.87;;
7231;SDS011;3657;49.630;11.018;2023-04-24T02:24:41;4.10;;;3.90;;
7231;SDS011;3657;49.630;11.018;2023-04-24T02:27:08;4.30;;;4.20;;
7231;SDS011;3657;49.630;11.018;2023-04-24T02:29:34;3.93;;;3.83;;
7231;SDS011;3657;49.630;11.018;2023-04-24T02:32:02;3.90;;;3.80;;
7231;SDS011;3657;49.630;11.018;2023-04-24T02:34:29;3.90;;;3.80;;
7231;SDS011;3657;49.630;11.018;2023-04-24T02:36:56;4.00;;;3.90;;
7231;SDS011;3657;49.630;11.018;2023-04-24T02:39:22;3.70;;;3.60;;
7231;SDS011;3657;49.630;11.018;2023-04-24T02:41:49;3.27;;;3.17;;
7231;SDS011;3657;49.630;11.018;2023-04-24T02:44:16;2.90;;;2.83;;
7231;SDS011;3657;49.630;11.018;2023-04-24T02:46:43;2.90;;;2.80;;
7231;SDS011;3657;49.630;11.018;2023-04-24T02:49:12;3.43;;;3.23;;
7231;SDS011;3657;49.630;11.018;2023-04-24T02:51:39;3.27;;;3.17;;
7231;SDS011;3657;49.630;11.018;2023-04-24T02:54:06;3.30;;;3.20;;
7231;SDS011;3657;49.630;11.018;2023-04-24T02:56:34;3.57;;;3.47;;
7231;SDS011;3657;49.630;11.018;2023-04-24T02:59:01;3.60;;;3.50;;
7231;SDS011;3657;49.630;11.018;2023-04-24T03:01:27;4.17;;;3.97;;
7231;SDS011;3657;49.630;11.018;2023-04-24T03:03:54;2.83;;;2.73;;
7231;SDS011;3657;49.630;11.018;2023-04-24T03:06:22;3.27;;;3.17;;
7231;SDS011;3657;49.630;11.018;2023-04-24T03:08:49;3.50;;;3.30;;
7231;SDS011;3657;49.630;11.018;2023-04-24T03:11:16;3.03;;;3.00;;
7231;SDS011;3657;49.630;11.018;2023-04-24T03:13:42;3.10;;;3.00;;
7231;SDS011;3657;49.630;11.018;2023-04-24T03:16:09;3.90;;;2.70;;
7231;SDS011;3657;49.630;11.018;2023-04-24T03:18:36;3.30;;;3.20;;
7231;SDS011;3657;49.630;11.018;2023-04-24T03:21:02;2.53;;;2.43;;
7231;SDS011;3657;49.630;11.018;2023-04-24T03:23:30;3.20;;;3.10;;
7231;SDS011;3657;49.630;11.018;2023-04-24T03:25:57;3.40;;;3.30;;
7231;SDS011;3657;49.630;11.018;2023-04-24T03:28:24;3.50;;;3.40;;
7231;SDS011;3657;49.630;11.018;2023-04-24T03:30:51;3.87;;;3.77;;
7231;SDS011;3657;49.630;11.018;2023-04-24T03:33:17;3.70;;;3.60;;
7231;SDS011;3657;49.630;11.018;2023-04-24T03:35:44;3.50;;;3.40;;
7231;SDS011;3657;49.630;11.018;2023-04-24T03:38:11;3.40;;;3.30;;
7231;SDS011;3657;49.630;11.018;2023-04-24T03:40:39;3.80;;;3.70;;
7231;SDS011;3657;49.630;11.018;2023-04-24T03:43:05;4.23;;;4.10;;
7231;SDS011;3657;49.630;11.018;2023-04-24T03:45:32;3.00;;;2.90;;
7231;SDS011;3657;49.630;11.018;2023-04-24T03:47:58;3.20;;;3.10;;
7231;SDS011;3657;49.630;11.018;2023-04-24T03:50:25;3.70;;;3.60;;
7231;SDS011;3657;49.630;11.018;2023-04-24T03:52:54;2.90;;;2.80;;
7231;SDS011;3657;49.630;11.018;2023-04-24T03:55:20;2.90;;;2.80;;
7231;SDS011;3657;49.630;11.018;2023-04-24T03:57:48;3.23;;;3.13;;
7231;SDS011;3657;49.630;11.018;2023-04-24T04:00:15;3.87;;;3.77;;
7231;SDS011;3657;49.630;11.018;2023-04-24T04:02:43;2.40;;;2.40;;
7231;SDS011;3657;49.630;11.018;2023-04-24T04:05:10;3.20;;;3.10;;
7231;SDS011;3657;49.630;11.018;2023-04-24T04:07:36;3.13;;;3.03;;
7231;SDS011;3657;49.630;11.018;2023-04-24T04:10:03;3.40;;;3.30;;
7231;SDS011;3657;49.630;11.018;2023-04-24T04:12:32;3.17;;;3.07;;
7231;SDS011;3657;49.630;11.018;2023-04-24T04:15:00;3.80;;;3.70;;
7231;SDS011;3657;49.630;11.018;2023-04-24T04:17:26;3.13;;;3.13;;
7231;SDS011;3657;49.630;11.018;2023-04-24T04:19:53;3.50;;;3.40;;
7231;SDS011;3657;49.630;11.018;2023-04-24T04:22:20;4.07;;;3.97;;
7231;SDS011;3657;49.630;11.018;2023-04-24T04:24:46;3.33;;;3.23;;
7231;SDS011;3657;49.630;11.018;2023-04-24T04:27:13;3.87;;;3.67;;
7231;SDS011;3657;49.630;11.018;2023-04-24T04:29:41;3.57;;;3.37;;
7231;SDS011;3657;49.630;11.018;2023-04-24T04:32:10;4.40;;;4.20;;
7231;SDS011;3657;49.630;11.018;2023-04-24T04:34:36;3.90;;;3.80;;
7231;SDS011;3657;49.630;11.018;2023-04-24T04:37:04;3.60;;;3.50;;
7231;SDS011;3657;49.630;11.018;2023-04-24T04:39:31;3.37;;;3.27;;
7231;SDS011;3657;49.630;11.018;2023-04-24T04:41:57;4.10;;;4.00;;
7231;SDS011;3657;49.630;11.018;2023-04-24T04:44:25;3.80;;;3.70;;
7231;SDS011;3657;49.630;11.018;2023-04-24T04:46:53;3.43;;;3.33;;
7231;SDS011;3657;49.630;11.018;2023-04-24T04:49:22;3.43;;;3.33;;
7231;SDS011;3657;49.630;11.018;2023-04-24T04:51:49;3.53;;;3.43;;
7231;SDS011;3657;49.630;11.018;2023-04-24T04:54:16;3.63;;;3.53;;
7231;SDS011;3657;49.630;11.018;2023-04-24T04:56:43;3.93;;;3.80;;
7231;SDS011;3657;49.630;11.018;2023-04-24T04:59:10;3.73;;;3.63;;
7231;SDS011;3657;49.630;11.018;2023-04-24T05:01:37;3.67;;;3.57;;
7231;SDS011;3657;49.630;11.018;2023-04-24T05:04:04;4.17;;;4.07;;
7231;SDS011;3657;49.630;11.018;2023-04-24T05:06:32;4.20;;;4.10;;
7231;SDS011;3657;49.630;11.018;2023-04-24T05:08:59;3.87;;;3.70;;
7231;SDS011;3657;49.630;11.018;2023-04-24T05:11:28;3.77;;;3.67;;
7231;SDS011;3657;49.630;11.018;2023-04-24T05:13:55;4.10;;;4.00;;
7231;SDS011;3657;49.630;11.018;2023-04-24T05:16:22;3.50;;;3.40;;
7231;SDS011;3657;49.630;11.018;2023-04-24T05:18:48;3.93;;;3.83;;
7231;SDS011;3657;49.630;11.018;2023-04-24T05:21:15;3.63;;;3.53;;
7231;SDS011;3657;49.630;11.018;2023-04-24T05:23:43;3.90;;;3.80;;
7231;SDS011;3657;49.630;11.018;2023-04-24T05:26:10;3.93;;;3.73;;
7231;SDS011;3657;49.630;11.018;2023-04-24T05:28:36;4.63;;;4.47;;
7231;SDS011;3657;49.630;11.018;2023-04-24T05:31:03;3.67;;;3.47;;
7231;SDS011;3657;49.630;11.018;2023-04-24T05:33:30;4.47;;;4.27;;
7231;SDS011;3657;49.630;11.018;2023-04-24T05:35:56;3.53;;;3.43;;
7231;SDS011;3657;49.630;11.018;2023-04-24T05:38:23;4.33;;;4.13;;
7231;SDS011;3657;49.630;11.018;2023-04-24T05:40:51;4.37;;;4.27;;
7231;SDS011;3657;49.630;11.018;2023-04-24T05:43:18;3.70;;;3.60;;
7231;SDS011;3657;49.630;11.018;2023-04-24T05:45:44;4.60;;;4.37;;
7231;SDS011;3657;49.630;11.018;2023-04-24T05:48:11;4.47;;;4.27;;
7231;SDS011;3657;49.630;11.018;2023-04-24T05:50:38;4.90;;;4.80;;
7231;SDS011;3657;49.630;11.018;2023-04-24T05:53:04;5.43;;;5.27;;
7231;SDS011;3657;49.630;11.018;2023-04-24T05:55:32;5.37;;;5.23;;
7231;SDS011;3657;49.630;11.018;2023-04-24T05:58:00;5.77;;;5.57;;
7231;SDS011;3657;49.630;11.018;2023-04-24T06:00:26;5.87;;;5.60;;
7231;SDS011;3657;49.630;11.018;2023-04-24T06:02:53;4.50;;;4.40;;
7231;SDS011;3657;49.630;11.018;2023-04-24T06:05:20;4.90;;;4.70;;
7231;SDS011;3657;49.630;11.018;2023-04-24T06:07:47;5.23;;;5.03;;
7231;SDS011;3657;49.630;11.018;2023-04-24T06:10:14;5.10;;;4.60;;
7231;SDS011;3657;49.630;11.018;2023-04-24T06:12:40;4.37;;;4.17;;
7231;SDS011;3657;49.630;11.018;2023-04-24T06:15:09;4.20;;;4.10;;
7231;SDS011;3657;49.630;11.018;2023-04-24T06:17:36;4.73;;;4.60;;
7231;SDS011;3657;49.630;11.018;2023-04-24T06:20:03;4.10;;;4.00;;
7231;SDS011;3657;49.630;11.018;2023-04-24T06:22:31;4.57;;;4.37;;
7231;SDS011;3657;49.630;11.018;2023-04-24T06:24:59;4.53;;;4.40;;
7231;SDS011;3657;49.630;11.018;2023-04-24T06:27:26;4.37;;;4.27;;
7231;SDS011;3657;49.630;11.018;2023-04-24T06:29:53;4.23;;;4.13;;
7231;SDS011;3657;49.630;11.018;2023-04-24T06:32:22;4.40;;;4.30;;
7231;SDS011;3657;49.630;11.018;2023-04-24T06:34:49;4.00;;;3.80;;
7231;SDS011;3657;49.630;11.018;2023-04-24T06:37:16;3.80;;;3.60;;
7231;SDS011;3657;49.630;11.018;2023-04-24T06:39:44;4.13;;;4.03;;
7231;SDS011;3657;49.630;11.018;2023-04-24T06:42:10;4.33;;;4.23;;
7231;SDS011;3657;49.630;11.018;2023-04-24T06:44:37;4.27;;;4.17;;
7231;SDS011;3657;49.630;11.018;2023-04-24T06:47:05;3.73;;;3.63;;
7231;SDS011;3657;49.630;11.018;2023-04-24T06:49:34;3.60;;;3.50;;
7231;SDS011;3657;49.630;11.018;2023-04-24T06:52:01;3.23;;;3.13;;
7231;SDS011;3657;49.630;11.018;2023-04-24T06:54:28;3.30;;;3.20;;
7231;SDS011;3657;49.630;11.018;2023-04-24T06:56:55;3.70;;;3.60;;
7231;SDS011;3657;49.630;11.018;2023-04-24T06:59:22;3.83;;;3.73;;
7231;SDS011;3657;49.630;11.018;2023-04-24T07:01:48;4.07;;;3.97;;
7231;SDS011;3657;49.630;11.018;2023-04-24T07:04:16;3.70;;;3.60;;
7231;SDS011;3657;49.630;11.018;2023-04-24T07:06:44;5.53;;;5.33;;
7231;SDS011;3657;49.630;11.018;2023-04-24T07:09:11;6.50;;;6.17;;
7231;SDS011;3657;49.630;11.018;2023-04-24T07:11:40;5.53;;;5.33;;
7231;SDS011;3657;49.630;11.018;2023-04-24T07:14:06;4.97;;;4.87;;
7231;SDS011;3657;49.630;11.018;2023-04-24T07:16:33;4.37;;;4.27;;
7231;SDS011;3657;49.630;11.018;2023-04-24T07:19:00;3.50;;;3.40;;
7231;SDS011;3657;49.630;11.018;2023-04-24T07:21:27;3.50;;;3.40;;
7231;SDS011;3657;49.630;11.018;2023-04-24T07:23:55;3.90;;;3.70;;
7231;SDS011;3657;49.630;11.018;2023-04-24T07:26:21;3.80;;;3.70;;
7231;SDS011;3657;49.630;11.018;2023-04-24T07:28:48;3.43;;;3.33;;
7231;SDS011;3657;49.630;11.018;2023-04-24T07:31:15;2.87;;;2.83;;
7231;SDS011;3657;49.630;11.018;2023-04-24T07:33:41;3.20;;;3.10;;
7231;SDS011;3657;49.630;11.018;2023-04-24T07:36:08;3.70;;;3.60;;
7231;SDS011;3657;49.630;11.018;2023-04-24T07:38:40;3.20;;;3.10;;
7231;SDS011;3657;49.630;11.018;2023-04-24T07:41:08;3.23;;;3.13;;
7231;SDS011;3657;49.630;11.018;2023-04-24T07:43:35;2.90;;;2.80;;
7231;SDS011;3657;49.630;11.018;2023-04-24T07:46:01;2.87;;;2.87;;
7231;SDS011;3657;49.630;11.018;2023-04-24T07:48:28;3.10;;;3.00;;
7231;SDS011;3657;49.630;11.018;2023-04-24T07:50:55;3.20;;;3.10;;
7231;SDS011;3657;49.630;11.018;2023-04-24T07:53:21;2.97;;;2.97;;
7231;SDS011;3657;49.630;11.018;2023-04-24T07:55:48;3.07;;;2.97;;
7231;SDS011;3657;49.630;11.018;2023-04-24T07:58:16;2.80;;;2.70;;
7231;SDS011;3657;49.630;11.018;2023-04-24T08:00:43;3.50;;;3.40;;
7231;SDS011;3657;49.630;11.018;2023-04-24T08:03:09;3.50;;;3.40;;
7231;SDS011;3657;49.630;11.018;2023-04-24T08:05:37;3.00;;;2.93;;
7231;SDS011;3657;49.630;11.018;2023-04-24T08:08:04;3.17;;;3.07;;
7231;SDS011;3657;49.630;11.018;2023-04-24T08:10:31;3.73;;;3.63;;
7231;SDS011;3657;49.630;11.018;2023-04-24T08:12:57;3.80;;;3.70;;
7231;SDS011;3657;49.630;11.018;2023-04-24T08:15:26;4.23;;;4.07;;
7231;SDS011;3657;49.630;11.018;2023-04-24T08:17:53;3.80;;;3.70;;
7231;SDS011;3657;49.630;11.018;2023-04-24T08:20:20;3.97;;;3.87;;
7231;SDS011;3657;49.630;11.018;2023-04-24T08:22:47;3.90;;;3.80;;
7231;SDS011;3657;49.630;11.018;2023-04-24T08:25:13;4.10;;;4.00;;
7231;SDS011;3657;49.630;11.018;2023-04-24T08:27:40;3.83;;;3.73;;
7231;SDS011;3657;49.630;11.018;2023-04-24T08:30:07;4.10;;;4.00;;
7231;SDS011;3657;49.630;11.018;2023-04-24T08:32:36;4.40;;;4.30;;
7231;SDS011;3657;49.630;11.018;2023-04-24T08:35:03;4.03;;;3.93;;
7231;SDS011;3657;49.630;11.018;2023-04-24T08:37:30;3.93;;;3.83;;
7231;SDS011;3657;49.630;11.018;2023-04-24T08:39:57;4.53;;;4.33;;
7231;SDS011;3657;49.630;11.018;2023-04-24T08:42:24;4.70;;;4.50;;
7231;SDS011;3657;49.630;11.018;2023-04-24T08:44:54;4.83;;;4.63;;
7231;SDS011;3657;49.630;11.018;2023-04-24T08:47:21;4.37;;;4.27;;
7231;SDS011;3657;49.630;11.018;2023-04-24T08:49:51;4.33;;;4.23;;
7231;SDS011;3657;49.630;11.018;2023-04-24T08:52:18;4.70;;;4.50;;
7231;SDS011;3657;49.630;11.018;2023-04-24T08:54:45;5.43;;;5.17;;
7231;SDS011;3657;49.630;11.018;2023-04-24T08:57:12;4.50;;;4.40;;
7231;SDS011;3657;49.630;11.018;2023-04-24T08:59:40;4.00;;;3.90;;
7231;SDS011;3657;49.630;11.018;2023-04-24T09:02:08;4.20;;;4.10;;
7231;SDS011;3657;49.630;11.018;2023-04-24T09:04:36;3.93;;;3.77;;
7231;SDS011;3657;49.630;11.018;2023-04-24T09:07:05;4.67;;;4.57;;
7231;SDS011;3657;49.630;11.018;2023-04-24T09:09:33;4.13;;;4.03;;
7231;SDS011;3657;49.630;11.018;2023-04-24T09:12:00;5.03;;;4.93;;
7231;SDS011;3657;49.630;11.018;2023-04-24T09:14:28;4.83;;;4.73;;
7231;SDS011;3657;49.630;11.018;2023-04-24T09:16:56;4.50;;;4.40;;
7231;SDS011;3657;49.630;11.018;2023-04-24T09:19:23;4.50;;;4.40;;
7231;SDS011;3657;49.630;11.018;2023-04-24T09:21:50;4.97;;;4.87;;
7231;SDS011;3657;49.630;11.018;2023-04-24T09:24:21;4.40;;;4.30;;
7231;SDS011;3657;49.630;11.018;2023-04-24T09:26:48;4.40;;;4.30;;
7231;SDS011;3657;49.630;11.018;2023-04-24T09:29:22;4.23;;;4.13;;
7231;SDS011;3657;49.630;11.018;2023-04-24T09:31:48;5.10;;;4.90;;
7231;SDS011;3657;49.630;11.018;2023-04-24T09:34:18;4.80;;;4.70;;
7231;SDS011;3657;49.630;11.018;2023-04-24T09:36:47;4.90;;;4.80;;
7231;SDS011;3657;49.630;11.018;2023-04-24T09:39:14;4.80;;;4.70;;
7231;SDS011;3657;49.630;11.018;2023-04-24T09:41:46;3.37;;;3.27;;
7231;SDS011;3657;49.630;11.018;2023-04-24T09:44:14;4.90;;;4.70;;
7231;SDS011;3657;49.630;11.018;2023-04-24T09:46:42;4.40;;;4.30;;
7231;SDS011;3657;49.630;11.018;2023-04-24T09:49:10;4.43;;;4.23;;
7231;SDS011;3657;49.630;11.018;2023-04-24T09:51:39;4.00;;;3.90;;
7231;SDS011;3657;49.630;11.018;2023-04-24T09:54:11;3.73;;;3.63;;
7231;SDS011;3657;49.630;11.018;2023-04-24T09:56:41;4.50;;;4.40;;
7231;SDS011;3657;49.630;11.018;2023-04-24T09:59:11;4.70;;;4.60;;
7231;SDS011;3657;49.630;11.018;2023-04-24T10:01:38;4.23;;;4.07;;
7231;SDS011;3657;49.630;11.018;2023-04-24T10:04:14;3.40;;;3.40;;
7231;SDS011;3657;49.630;11.018;2023-04-24T10:06:41;3.80;;;3.70;;
7231;SDS011;3657;49.630;11.018;2023-04-24T10:09:09;3.37;;;3.27;;
7231;SDS011;3657;49.630;11.018;2023-04-24T10:11:37;3.67;;;3.57;;
7231;SDS011;3657;49.630;11.018;2023-04-24T10:14:08;3.60;;;3.50;;
7231;SDS011;3657;49.630;11.018;2023-04-24T10:16:38;3.43;;;3.40;;
7231;SDS011;3657;49.630;11.018;2023-04-24T10:19:06;3.70;;;3.60;;
7231;SDS011;3657;49.630;11.018;2023-04-24T10:21:33;3.00;;;2.90;;
7231;SDS011;3657;49.630;11.018;2023-04-24T10:24:01;4.77;;;4.57;;
7231;SDS011;3657;49.630;11.018;2023-04-24T10:26:29;3.13;;;3.03;;
7231;SDS011;3657;49.630;11.018;2023-04-24T10:28:57;3.73;;;3.57;;
7231;SDS011;3657;49.630;11.018;2023-04-24T10:31:26;3.40;;;3.30;;
7231;SDS011;3657;49.630;11.018;2023-04-24T10:33:56;3.37;;;3.27;;
7231;SDS011;3657;49.630;11.018;2023-04-24T10:36:24;2.60;;;2.40;;
7231;SDS011;3657;49.630;11.018;2023-04-24T10:38:54;2.33;;;2.33;;
7231;SDS011;3657;49.630;11.018;2023-04-24T10:41:22;3.00;;;3.00;;
7231;SDS011;3657;49.630;11.018;2023-04-24T10:44:03;3.10;;;3.00;;
7231;SDS011;3657;49.630;11.018;2023-04-24T10:46:32;2.60;;;2.60;;
7231;SDS011;3657;49.630;11.018;2023-04-24T10:48:59;2.90;;;2.87;;
7231;SDS011;3657;49.630;11.018;2023-04-24T10:51:43;2.63;;;2.57;;
7231;SDS011;3657;49.630;11.018;2023-04-24T10:54:24;2.70;;;2.70;;
7231;SDS011;3657;49.630;11.018;2023-04-24T10:56:53;3.40;;;3.30;;
7231;SDS011;3657;49.630;11.018;2023-04-24T10:59:39;3.17;;;3.07;;
7231;SDS011;3657;49.630;11.018;2023-04-24T11:02:08;3.07;;;3.03;;
7231;SDS011;3657;49.630;11.018;2023-04-24T11:04:34;3.57;;;3.47;;
7231;SDS011;3657;49.630;11.018;2023-04-24T11:07:02;3.30;;;3.20;;
7231;SDS011;3657;49.630;11.018;2023-04-24T11:09:30;3.70;;;3.50;;
7231;SDS011;3657;49.630;11.018;2023-04-24T11:12:04;3.40;;;3.30;;
7231;SDS011;3657;49.630;11.018;2023-04-24T11:17:31;3.33;;;3.23;;
7231;SDS011;3657;49.630;11.018;2023-04-24T11:20:02;3.63;;;3.53;;
7231;SDS011;3657;49.630;11.018;2023-04-24T11:22:32;3.57;;;3.37;;
7231;SDS011;3657;49.630;11.018;2023-04-24T11:25:00;3.50;;;3.40;;
7231;SDS011;3657;49.630;11.018;2023-04-24T11:27:29;4.37;;;4.27;;
7231;SDS011;3657;49.630;11.018;2023-04-24T11:30:01;4.10;;;3.90;;
7231;SDS011;3657;49.630;11.018;2023-04-24T11:32:33;3.97;;;3.87;;
7231;SDS011;3657;49.630;11.018;2023-04-24T11:35:02;3.80;;;3.70;;
7231;SDS011;3657;49.630;11.018;2023-04-24T11:37:33;3.87;;;3.77;;
7231;SDS011;3657;49.630;11.018;2023-04-24T11:40:01;3.90;;;3.80;;
7231;SDS011;3657;49.630;11.018;2023-04-24T11:42:33;4.30;;;4.20;;
7231;SDS011;3657;49.630;11.018;2023-04-24T11:45:00;3.83;;;3.73;;
7231;SDS011;3657;49.630;11.018;2023-04-24T11:47:27;4.33;;;3.93;;
7231;SDS011;3657;49.630;11.018;2023-04-24T11:49:56;4.40;;;4.10;;
7231;SDS011;3657;49.630;11.018;2023-04-24T11:52:23;4.20;;;4.10;;
7231;SDS011;3657;49.630;11.018;2023-04-24T11:54:50;3.67;;;3.57;;
7231;SDS011;3657;49.630;11.018;2023-04-24T11:57:18;4.13;;;4.03;;
7231;SDS011;3657;49.630;11.018;2023-04-24T11:59:46;4.50;;;4.40;;
7231;SDS011;3657;49.630;11.018;2023-04-24T12:02:19;4.30;;;4.20;;
7231;SDS011;3657;49.630;11.018;2023-04-24T12:04:47;3.93;;;3.83;;
7231;SDS011;3657;49.630;11.018;2023-04-24T12:07:15;4.43;;;4.23;;
7231;SDS011;3657;49.630;11.018;2023-04-24T12:09:42;3.90;;;3.80;;
7231;SDS011;3657;49.630;11.018;2023-04-24T12:12:10;4.07;;;3.97;;
7231;SDS011;3657;49.630;11.018;2023-04-24T12:14:42;3.67;;;3.57;;
7231;SDS011;3657;49.630;11.018;2023-04-24T12:17:09;4.20;;;4.10;;
7231;SDS011;3657;49.630;11.018;2023-04-24T12:19:36;4.43;;;4.33;;
7231;SDS011;3657;49.630;11.018;2023-04-24T12:22:04;4.80;;;4.70;;
7231;SDS011;3657;49.630;11.018;2023-04-24T12:24:33;4.20;;;4.10;;
7231;SDS011;3657;49.630;11.018;2023-04-24T12:27:00;4.70;;;4.37;;
7231;SDS011;3657;49.630;11.018;2023-04-24T12:29:27;4.47;;;4.27;;
7231;SDS011;3657;49.630;11.018;2023-04-24T12:31:54;3.80;;;3.70;;
7231;SDS011;3657;49.630;11.018;2023-04-24T12:34:21;4.10;;;4.00;;
7231;SDS011;3657;49.630;11.018;2023-04-24T12:36:49;4.67;;;4.57;;
7231;SDS011;3657;49.630;11.018;2023-04-24T12:39:16;4.30;;;4.20;;
7231;SDS011;3657;49.630;11.018;2023-04-24T12:41:54;3.67;;;3.60;;
7231;SDS011;3657;49.630;11.018;2023-04-24T12:44:28;4.50;;;4.40;;
7231;SDS011;3657;49.630;11.018;2023-04-24T12:46:55;4.10;;;4.00;;
7231;SDS011;3657;49.630;11.018;2023-04-24T12:49:22;3.90;;;3.80;;
7231;SDS011;3657;49.630;11.018;2023-04-24T12:51:48;4.30;;;4.20;;
7231;SDS011;3657;49.630;11.018;2023-04-24T12:54:15;4.93;;;4.83;;
7231;SDS011;3657;49.630;11.018;2023-04-24T12:56:42;4.30;;;4.20;;
7231;SDS011;3657;49.630;11.018;2023-04-24T12:59:10;4.67;;;4.57;;
7231;SDS011;3657;49.630;11.018;2023-04-24T13:01:36;3.90;;;3.80;;
7231;SDS011;3657;49.630;11.018;2023-04-24T13:04:03;4.30;;;4.20;;
7231;SDS011;3657;49.630;11.018;2023-04-24T13:06:30;4.40;;;4.30;;
7231;SDS011;3657;49.630;11.018;2023-04-24T13:08:57;4.57;;;4.40;;
7231;SDS011;3657;49.630;11.018;2023-04-24T13:11:24;4.33;;;4.23;;
7231;SDS011;3657;49.630;11.018;2023-04-24T13:13:51;4.07;;;3.87;;
7231;SDS011;3657;49.630;11.018;2023-04-24T13:16:19;4.40;;;4.30;;
7231;SDS011;3657;49.630;11.018;2023-04-24T13:18:46;4.83;;;4.53;;
7231;SDS011;3657;49.630;11.018;2023-04-24T13:21:12;4.13;;;3.93;;
7231;SDS011;3657;49.630;11.018;2023-04-24T13:23:39;4.97;;;4.80;;
7231;SDS011;3657;49.630;11.018;2023-04-24T13:26:06;4.23;;;4.13;;
7231;SDS011;3657;49.630;11.018;2023-04-24T13:28:32;4.30;;;4.10;;
7231;SDS011;3657;49.630;11.018;2023-04-24T13:30:59;4.17;;;4.07;;
7231;SDS011;3657;49.630;11.018;2023-04-24T13:33:27;4.30;;;4.20;;
7231;SDS011;3657;49.630;11.018;2023-04-24T13:35:54;4.30;;;4.20;;
7231;SDS011;3657;49.630;11.018;2023-04-24T13:38:21;4.47;;;4.30;;
7231;SDS011;3657;49.630;11.018;2023-04-24T13:40:48;3.97;;;3.87;;
7231;SDS011;3657;49.630;11.018;2023-04-24T13:43:15;4.03;;;3.93;;
7231;SDS011;3657;49.630;11.018;2023-04-24T13:45:41;4.40;;;4.30;;
7231;SDS011;3657;49.630;11.018;2023-04-24T13:48:08;4.13;;;4.03;;
7231;SDS011;3657;49.630;11.018;2023-04-24T13:50:36;4.33;;;4.20;;
7231;SDS011;3657;49.630;11.018;2023-04-24T13:53:03;4.57;;;4.47;;
7231;SDS011;3657;49.630;11.018;2023-04-24T13:55:29;3.80;;;3.70;;
7231;SDS011;3657;49.630;11.018;2023-04-24T13:57:56;4.63;;;4.47;;
7231;SDS011;3657;49.630;11.018;2023-04-24T14:00:23;4.23;;;4.07;;
7231;SDS011;3657;49.630;11.018;2023-04-24T14:02:49;4.33;;;4.20;;
7231;SDS011;3657;49.630;11.018;2023-04-24T14:05:16;4.30;;;4.20;;
7231;SDS011;3657;49.630;11.018;2023-04-24T14:07:44;4.13;;;4.03;;
7231;SDS011;3657;49.630;11.018;2023-04-24T14:10:11;4.20;;;4.10;;
7231;SDS011;3657;49.630;11.018;2023-04-24T14:12:37;4.30;;;4.20;;
7231;SDS011;3657;49.630;11.018;2023-04-24T14:15:05;3.83;;;3.70;;
7231;SDS011;3657;49.630;11.018;2023-04-24T14:17:33;4.20;;;4.10;;
7231;SDS011;3657;49.630;11.018;2023-04-24T14:20:00;4.33;;;4.23;;
7231;SDS011;3657;49.630;11.018;2023-04-24T14:22:28;3.90;;;3.80;;
7231;SDS011;3657;49.630;11.018;2023-04-24T14:24:56;4.60;;;4.50;;
7231;SDS011;3657;49.630;11.018;2023-04-24T14:27:23;4.07;;;3.97;;
7231;SDS011;3657;49.630;11.018;2023-04-24T14:29:50;4.37;;;4.17;;
7231;SDS011;3657;49.630;11.018;2023-04-24T14:32:17;4.33;;;4.23;;
7231;SDS011;3657;49.630;11.018;2023-04-24T14:34:44;4.83;;;4.50;;
7231;SDS011;3657;49.630;11.018;2023-04-24T14:37:10;4.57;;;4.30;;
7231;SDS011;3657;49.630;11.018;2023-04-24T14:39:37;4.43;;;4.33;;
7231;SDS011;3657;49.630;11.018;2023-04-24T14:42:05;4.40;;;4.20;;
7231;SDS011;3657;49.630;11.018;2023-04-24T14:44:32;4.20;;;4.10;;
7231;SDS011;3657;49.630;11.018;2023-04-24T14:46:59;4.57;;;4.47;;
7231;SDS011;3657;49.630;11.018;2023-04-24T14:49:25;4.27;;;4.17;;
7231;SDS011;3657;49.630;11.018;2023-04-24T14:51:52;4.40;;;4.30;;
7231;SDS011;3657;49.630;11.018;2023-04-24T14:54:19;4.20;;;4.10;;
7231;SDS011;3657;49.630;11.018;2023-04-24T14:56:48;4.73;;;4.47;;
7231;SDS011;3657;49.630;11.018;2023-04-24T14:59:16;4.23;;;4.13;;
7231;SDS011;3657;49.630;11.018;2023-04-24T15:01:43;4.23;;;4.13;;
7231;SDS011;3657;49.630;11.018;2023-04-24T15:04:10;4.43;;;4.33;;
7231;SDS011;3657;49.630;11.018;2023-04-24T15:06:36;4.87;;;4.77;;